sensor_id;sensor_type;location;lat;lon;timestamp;P1;durP1;ratioP1;P2;durP2;ratioP2
15385;SDS011;7791;47.246;9.648;2023-12-20T00:01:45;24.13;;;10.40;;
15385;SDS011;7791;47.246;9.648;2023-12-20T00:04:38;17.23;;;9.53;;
15385;SDS011;7791;47.246;9.648;2023-12-20T00:07:13;15.13;;;8.77;;
15385;SDS011;7791;47.246;9.648;2023-12-20T00:09:49;18.63;;;9.30;;
15385;SDS011;7791;47.246;9.648;2023-12-20T00:12:24;17.73;;;9.70;;
15385;SDS011;7791;47.246;9.648;2023-12-20T00:15:03;20.37;;;10.53;;
15385;SDS011;7791;47.246;9.648;2023-12-20T00:18:00;18.70;;;10.57;;
15385;SDS011;7791;47.246;9.648;2023-12-20T00:20:35;18.13;;;10.40;;
15385;SDS011;7791;47.246;9.648;2023-12-20T00:26:09;19.50;;;10.43;;
15385;SDS011;7791;47.246;9.648;2023-12-20T00:28:42;18.77;;;10.63;;
15385;SDS011;7791;47.246;9.648;2023-12-20T00:31:22;16.93;;;9.60;;
15385;SDS011;7791;47.246;9.648;2023-12-20T00:37:01;17.87;;;10.20;;
15385;SDS011;7791;47.246;9.648;2023-12-20T00:39:40;15.83;;;9.67;;
15385;SDS011;7791;47.246;9.648;2023-12-20T00:42:16;15.70;;;8.83;;
15385;SDS011;7791;47.246;9.648;2023-12-20T00:45:08;14.53;;;8.67;;
15385;SDS011;7791;47.246;9.648;2023-12-20T00:47:48;13.53;;;8.57;;
15385;SDS011;7791;47.246;9.648;2023-12-20T00:53:23;12.57;;;7.97;;
15385;SDS011;7791;47.246;9.648;2023-12-20T00:56:12;15.57;;;8.37;;
15385;SDS011;7791;47.246;9.648;2023-12-20T00:58:47;17.77;;;8.60;;
15385;SDS011;7791;47.246;9.648;2023-12-20T01:01:41;15.80;;;8.73;;
15385;SDS011;7791;47.246;9.648;2023-12-20T01:04:17;15.03;;;8.43;;
15385;SDS011;7791;47.246;9.648;2023-12-20T01:09:53;16.27;;;8.90;;
15385;SDS011;7791;47.246;9.648;2023-12-20T01:12:32;15.33;;;8.30;;
15385;SDS011;7791;47.246;9.648;2023-12-20T01:15:17;14.77;;;8.47;;
15385;SDS011;7791;47.246;9.648;2023-12-20T01:18:02;13.57;;;7.77;;
15385;SDS011;7791;47.246;9.648;2023-12-20T01:23:36;15.33;;;8.23;;
15385;SDS011;7791;47.246;9.648;2023-12-20T01:26:11;15.30;;;8.50;;
15385;SDS011;7791;47.246;9.648;2023-12-20T01:28:48;14.70;;;8.53;;
15385;SDS011;7791;47.246;9.648;2023-12-20T01:31:18;15.90;;;9.53;;
15385;SDS011;7791;47.246;9.648;2023-12-20T01:33:51;15.60;;;9.37;;
15385;SDS011;7791;47.246;9.648;2023-12-20T01:36:38;18.40;;;9.77;;
15385;SDS011;7791;47.246;9.648;2023-12-20T01:42:23;18.83;;;10.13;;
15385;SDS011;7791;47.246;9.648;2023-12-20T01:45:05;17.53;;;9.47;;
15385;SDS011;7791;47.246;9.648;2023-12-20T01:47:53;15.13;;;9.23;;
15385;SDS011;7791;47.246;9.648;2023-12-20T01:50:26;15.50;;;9.30;;
15385;SDS011;7791;47.246;9.648;2023-12-20T01:53:01;15.43;;;8.57;;
15385;SDS011;7791;47.246;9.648;2023-12-20T01:55:36;15.10;;;9.00;;
15385;SDS011;7791;47.246;9.648;2023-12-20T01:58:14;17.23;;;9.97;;
15385;SDS011;7791;47.246;9.648;2023-12-20T02:00:55;13.97;;;8.87;;
15385;SDS011;7791;47.246;9.648;2023-12-20T02:03:32;18.80;;;9.97;;
15385;SDS011;7791;47.246;9.648;2023-12-20T02:06:21;16.47;;;9.80;;
15385;SDS011;7791;47.246;9.648;2023-12-20T02:09:02;20.13;;;11.07;;
15385;SDS011;7791;47.246;9.648;2023-12-20T02:11:54;19.70;;;11.33;;
15385;SDS011;7791;47.246;9.648;2023-12-20T02:14:29;20.87;;;9.53;;
15385;SDS011;7791;47.246;9.648;2023-12-20T02:17:14;15.70;;;9.10;;
15385;SDS011;7791;47.246;9.648;2023-12-20T02:19:57;16.13;;;9.47;;
15385;SDS011;7791;47.246;9.648;2023-12-20T02:25:27;14.20;;;9.03;;
15385;SDS011;7791;47.246;9.648;2023-12-20T02:28:16;17.67;;;10.57;;
15385;SDS011;7791;47.246;9.648;2023-12-20T02:30:53;17.40;;;10.10;;
15385;SDS011;7791;47.246;9.648;2023-12-20T02:33:25;15.90;;;9.80;;
15385;SDS011;7791;47.246;9.648;2023-12-20T02:36:04;15.50;;;9.50;;
15385;SDS011;7791;47.246;9.648;2023-12-20T02:41:35;16.07;;;9.83;;
15385;SDS011;7791;47.246;9.648;2023-12-20T02:44:16;19.20;;;10.53;;
15385;SDS011;7791;47.246;9.648;2023-12-20T02:46:55;16.17;;;9.77;;
15385;SDS011;7791;47.246;9.648;2023-12-20T02:49:27;18.53;;;11.03;;
15385;SDS011;7791;47.246;9.648;2023-12-20T02:52:24;17.77;;;10.10;;
15385;SDS011;7791;47.246;9.648;2023-12-20T02:57:53;16.47;;;10.20;;
15385;SDS011;7791;47.246;9.648;2023-12-20T03:00:35;19.57;;;10.60;;
15385;SDS011;7791;47.246;9.648;2023-12-20T03:03:14;16.90;;;10.33;;
15385;SDS011;7791;47.246;9.648;2023-12-20T03:05:55;18.20;;;10.87;;
15385;SDS011;7791;47.246;9.648;2023-12-20T03:08:27;16.80;;;10.20;;
15385;SDS011;7791;47.246;9.648;2023-12-20T03:10:59;16.40;;;10.33;;
15385;SDS011;7791;47.246;9.648;2023-12-20T03:13:33;19.00;;;10.87;;
15385;SDS011;7791;47.246;9.648;2023-12-20T03:16:09;19.43;;;10.70;;
15385;SDS011;7791;47.246;9.648;2023-12-20T03:19:01;16.97;;;10.30;;
15385;SDS011;7791;47.246;9.648;2023-12-20T03:21:33;16.03;;;10.00;;
15385;SDS011;7791;47.246;9.648;2023-12-20T03:24:11;18.80;;;10.57;;
15385;SDS011;7791;47.246;9.648;2023-12-20T03:26:49;16.90;;;10.40;;
15385;SDS011;7791;47.246;9.648;2023-12-20T03:29:33;16.80;;;10.17;;
15385;SDS011;7791;47.246;9.648;2023-12-20T03:32:10;15.83;;;10.37;;
15385;SDS011;7791;47.246;9.648;2023-12-20T03:34:51;17.20;;;10.17;;
15385;SDS011;7791;47.246;9.648;2023-12-20T03:37:24;17.60;;;9.73;;
15385;SDS011;7791;47.246;9.648;2023-12-20T03:40:03;16.30;;;9.73;;
15385;SDS011;7791;47.246;9.648;2023-12-20T03:43:00;14.30;;;8.87;;
15385;SDS011;7791;47.246;9.648;2023-12-20T03:45:50;15.63;;;9.60;;
15385;SDS011;7791;47.246;9.648;2023-12-20T03:48:24;16.43;;;10.23;;
15385;SDS011;7791;47.246;9.648;2023-12-20T03:54:00;17.40;;;9.90;;
15385;SDS011;7791;47.246;9.648;2023-12-20T03:56:43;16.47;;;9.83;;
15385;SDS011;7791;47.246;9.648;2023-12-20T03:59:25;15.50;;;8.60;;
15385;SDS011;7791;47.246;9.648;2023-12-20T04:02:02;16.27;;;9.50;;
15385;SDS011;7791;47.246;9.648;2023-12-20T04:05:07;15.53;;;9.17;;
15385;SDS011;7791;47.246;9.648;2023-12-20T04:07:57;14.70;;;8.60;;
15385;SDS011;7791;47.246;9.648;2023-12-20T04:10:34;13.97;;;8.33;;
15385;SDS011;7791;47.246;9.648;2023-12-20T04:13:13;14.40;;;8.10;;
15385;SDS011;7791;47.246;9.648;2023-12-20T04:15:58;16.03;;;8.67;;
15385;SDS011;7791;47.246;9.648;2023-12-20T04:18:45;12.60;;;7.93;;
15385;SDS011;7791;47.246;9.648;2023-12-20T04:21:21;13.77;;;8.83;;
15385;SDS011;7791;47.246;9.648;2023-12-20T04:24:08;14.30;;;8.93;;
15385;SDS011;7791;47.246;9.648;2023-12-20T04:26:46;15.27;;;9.20;;
15385;SDS011;7791;47.246;9.648;2023-12-20T04:29:25;18.77;;;8.83;;
15385;SDS011;7791;47.246;9.648;2023-12-20T04:32:05;17.17;;;8.93;;
15385;SDS011;7791;47.246;9.648;2023-12-20T04:34:42;14.53;;;8.83;;
15385;SDS011;7791;47.246;9.648;2023-12-20T04:37:36;14.43;;;8.07;;
15385;SDS011;7791;47.246;9.648;2023-12-20T04:43:20;16.67;;;8.70;;
15385;SDS011;7791;47.246;9.648;2023-12-20T04:46:04;14.47;;;9.03;;
15385;SDS011;7791;47.246;9.648;2023-12-20T04:48:39;15.93;;;9.57;;
15385;SDS011;7791;47.246;9.648;2023-12-20T04:54:20;19.17;;;9.93;;
15385;SDS011;7791;47.246;9.648;2023-12-20T04:56:52;15.23;;;9.00;;
15385;SDS011;7791;47.246;9.648;2023-12-20T04:59:35;16.10;;;8.87;;
15385;SDS011;7791;47.246;9.648;2023-12-20T05:02:15;13.13;;;8.17;;
15385;SDS011;7791;47.246;9.648;2023-12-20T05:04:54;11.37;;;7.27;;
15385;SDS011;7791;47.246;9.648;2023-12-20T05:10:21;10.80;;;6.60;;
15385;SDS011;7791;47.246;9.648;2023-12-20T05:13:00;11.53;;;7.60;;
15385;SDS011;7791;47.246;9.648;2023-12-20T05:15:40;11.73;;;7.50;;
15385;SDS011;7791;47.246;9.648;2023-12-20T05:18:22;14.43;;;9.20;;
15385;SDS011;7791;47.246;9.648;2023-12-20T05:20:57;12.87;;;7.67;;
15385;SDS011;7791;47.246;9.648;2023-12-20T05:23:42;14.17;;;8.43;;
15385;SDS011;7791;47.246;9.648;2023-12-20T05:26:32;13.73;;;8.33;;
15385;SDS011;7791;47.246;9.648;2023-12-20T05:29:12;12.97;;;8.27;;
15385;SDS011;7791;47.246;9.648;2023-12-20T05:37:18;14.97;;;8.37;;
15385;SDS011;7791;47.246;9.648;2023-12-20T05:40:02;12.90;;;8.50;;
15385;SDS011;7791;47.246;9.648;2023-12-20T05:42:41;11.90;;;7.80;;
15385;SDS011;7791;47.246;9.648;2023-12-20T05:45:21;15.60;;;8.77;;
15385;SDS011;7791;47.246;9.648;2023-12-20T05:48:19;16.43;;;9.73;;
15385;SDS011;7791;47.246;9.648;2023-12-20T05:51:03;14.07;;;8.60;;
15385;SDS011;7791;47.246;9.648;2023-12-20T05:53:54;14.93;;;9.13;;
15385;SDS011;7791;47.246;9.648;2023-12-20T05:59:50;15.53;;;9.33;;
15385;SDS011;7791;47.246;9.648;2023-12-20T06:02:39;16.27;;;8.43;;
15385;SDS011;7791;47.246;9.648;2023-12-20T06:05:11;16.37;;;8.90;;
15385;SDS011;7791;47.246;9.648;2023-12-20T06:07:53;13.80;;;8.13;;
15385;SDS011;7791;47.246;9.648;2023-12-20T06:10:31;23.10;;;11.40;;
15385;SDS011;7791;47.246;9.648;2023-12-20T06:13:04;15.50;;;8.67;;
15385;SDS011;7791;47.246;9.648;2023-12-20T06:18:35;15.00;;;9.13;;
15385;SDS011;7791;47.246;9.648;2023-12-20T06:21:11;16.60;;;8.93;;
15385;SDS011;7791;47.246;9.648;2023-12-20T06:23:49;17.73;;;9.73;;
15385;SDS011;7791;47.246;9.648;2023-12-20T06:29:10;17.57;;;9.57;;
15385;SDS011;7791;47.246;9.648;2023-12-20T06:31:48;15.93;;;9.00;;
15385;SDS011;7791;47.246;9.648;2023-12-20T06:34:35;18.57;;;9.93;;
15385;SDS011;7791;47.246;9.648;2023-12-20T06:39:56;14.13;;;9.13;;
15385;SDS011;7791;47.246;9.648;2023-12-20T06:42:29;22.67;;;11.03;;
15385;SDS011;7791;47.246;9.648;2023-12-20T06:45:17;18.53;;;9.53;;
15385;SDS011;7791;47.246;9.648;2023-12-20T06:47:56;18.53;;;10.20;;
15385;SDS011;7791;47.246;9.648;2023-12-20T06:50:42;16.13;;;9.83;;
15385;SDS011;7791;47.246;9.648;2023-12-20T06:59:02;23.27;;;11.03;;
15385;SDS011;7791;47.246;9.648;2023-12-20T07:01:47;15.87;;;9.27;;
15385;SDS011;7791;47.246;9.648;2023-12-20T07:04:15;16.07;;;9.93;;
15385;SDS011;7791;47.246;9.648;2023-12-20T07:09:48;21.03;;;9.83;;
15385;SDS011;7791;47.246;9.648;2023-12-20T07:12:30;16.80;;;9.73;;
15385;SDS011;7791;47.246;9.648;2023-12-20T07:15:10;21.97;;;9.93;;
15385;SDS011;7791;47.246;9.648;2023-12-20T07:17:41;17.87;;;10.67;;
15385;SDS011;7791;47.246;9.648;2023-12-20T07:20:11;16.53;;;10.17;;
15385;SDS011;7791;47.246;9.648;2023-12-20T07:23:02;19.47;;;10.93;;
15385;SDS011;7791;47.246;9.648;2023-12-20T07:25:44;22.00;;;10.80;;
15385;SDS011;7791;47.246;9.648;2023-12-20T07:31:04;25.03;;;13.27;;
15385;SDS011;7791;47.246;9.648;2023-12-20T07:33:45;29.33;;;14.00;;
15385;SDS011;7791;47.246;9.648;2023-12-20T07:39:16;25.03;;;13.17;;
15385;SDS011;7791;47.246;9.648;2023-12-20T07:44:45;21.77;;;12.23;;
15385;SDS011;7791;47.246;9.648;2023-12-20T07:47:18;25.77;;;13.87;;
15385;SDS011;7791;47.246;9.648;2023-12-20T07:49:54;22.37;;;12.37;;
15385;SDS011;7791;47.246;9.648;2023-12-20T07:52:43;85.67;;;43.53;;
15385;SDS011;7791;47.246;9.648;2023-12-20T07:55:22;82.70;;;44.33;;
15385;SDS011;7791;47.246;9.648;2023-12-20T08:00:52;32.13;;;16.13;;
15385;SDS011;7791;47.246;9.648;2023-12-20T08:03:24;31.20;;;15.20;;
15385;SDS011;7791;47.246;9.648;2023-12-20T08:06:11;25.57;;;14.10;;
15385;SDS011;7791;47.246;9.648;2023-12-20T08:09:02;28.80;;;14.60;;
15385;SDS011;7791;47.246;9.648;2023-12-20T08:11:54;55.77;;;25.03;;
15385;SDS011;7791;47.246;9.648;2023-12-20T08:14:24;42.80;;;22.20;;
15385;SDS011;7791;47.246;9.648;2023-12-20T08:17:00;31.63;;;17.07;;
15385;SDS011;7791;47.246;9.648;2023-12-20T08:19:42;20.17;;;12.27;;
15385;SDS011;7791;47.246;9.648;2023-12-20T08:22:19;23.70;;;13.87;;
15385;SDS011;7791;47.246;9.648;2023-12-20T08:24:58;29.70;;;15.43;;
15385;SDS011;7791;47.246;9.648;2023-12-20T08:30:24;32.27;;;16.37;;
15385;SDS011;7791;47.246;9.648;2023-12-20T08:35:48;26.83;;;13.70;;
15385;SDS011;7791;47.246;9.648;2023-12-20T08:38:48;27.03;;;14.87;;
15385;SDS011;7791;47.246;9.648;2023-12-20T08:41:36;23.70;;;13.07;;
15385;SDS011;7791;47.246;9.648;2023-12-20T08:44:35;29.30;;;15.40;;
15385;SDS011;7791;47.246;9.648;2023-12-20T08:47:10;28.60;;;15.07;;
15385;SDS011;7791;47.246;9.648;2023-12-20T08:49:47;30.10;;;14.60;;
15385;SDS011;7791;47.246;9.648;2023-12-20T08:52:26;36.63;;;19.03;;
15385;SDS011;7791;47.246;9.648;2023-12-20T08:54:56;32.40;;;16.90;;
15385;SDS011;7791;47.246;9.648;2023-12-20T08:57:43;28.73;;;15.77;;
15385;SDS011;7791;47.246;9.648;2023-12-20T09:03:21;27.20;;;15.07;;
15385;SDS011;7791;47.246;9.648;2023-12-20T09:06:09;35.70;;;13.97;;
15385;SDS011;7791;47.246;9.648;2023-12-20T09:09:04;25.20;;;13.33;;
15385;SDS011;7791;47.246;9.648;2023-12-20T09:11:35;24.80;;;13.37;;
15385;SDS011;7791;47.246;9.648;2023-12-20T09:14:13;22.20;;;11.67;;
15385;SDS011;7791;47.246;9.648;2023-12-20T09:16:47;25.43;;;13.17;;
15385;SDS011;7791;47.246;9.648;2023-12-20T09:22:04;19.33;;;10.90;;
15385;SDS011;7791;47.246;9.648;2023-12-20T09:24:33;20.13;;;10.70;;
15385;SDS011;7791;47.246;9.648;2023-12-20T09:27:18;16.30;;;9.77;;
15385;SDS011;7791;47.246;9.648;2023-12-20T09:29:53;17.37;;;9.87;;
15385;SDS011;7791;47.246;9.648;2023-12-20T09:32:38;14.67;;;8.10;;
15385;SDS011;7791;47.246;9.648;2023-12-20T09:35:20;11.00;;;7.33;;
15385;SDS011;7791;47.246;9.648;2023-12-20T09:38:18;11.13;;;6.87;;
15385;SDS011;7791;47.246;9.648;2023-12-20T09:40:57;11.63;;;6.83;;
15385;SDS011;7791;47.246;9.648;2023-12-20T09:47:03;13.67;;;8.03;;
15385;SDS011;7791;47.246;9.648;2023-12-20T09:49:44;13.43;;;6.80;;
15385;SDS011;7791;47.246;9.648;2023-12-20T09:55:33;13.10;;;7.20;;
15385;SDS011;7791;47.246;9.648;2023-12-20T09:58:21;13.10;;;8.90;;
15385;SDS011;7791;47.246;9.648;2023-12-20T10:01:06;11.20;;;6.50;;
15385;SDS011;7791;47.246;9.648;2023-12-20T10:03:50;10.67;;;6.90;;
15385;SDS011;7791;47.246;9.648;2023-12-20T10:09:55;12.20;;;7.47;;
15385;SDS011;7791;47.246;9.648;2023-12-20T10:12:43;12.50;;;8.43;;
15385;SDS011;7791;47.246;9.648;2023-12-20T10:15:52;15.40;;;8.67;;
15385;SDS011;7791;47.246;9.648;2023-12-20T10:18:31;23.37;;;15.40;;
15385;SDS011;7791;47.246;9.648;2023-12-20T10:21:18;18.13;;;10.27;;
15385;SDS011;7791;47.246;9.648;2023-12-20T10:23:59;21.03;;;12.13;;
15385;SDS011;7791;47.246;9.648;2023-12-20T10:26:51;25.80;;;17.47;;
15385;SDS011;7791;47.246;9.648;2023-12-20T10:32:26;32.20;;;17.20;;
15385;SDS011;7791;47.246;9.648;2023-12-20T10:34:55;25.17;;;14.70;;
15385;SDS011;7791;47.246;9.648;2023-12-20T10:37:41;25.13;;;13.70;;
15385;SDS011;7791;47.246;9.648;2023-12-20T10:40:31;25.93;;;13.33;;
15385;SDS011;7791;47.246;9.648;2023-12-20T10:43:28;23.27;;;12.93;;
15385;SDS011;7791;47.246;9.648;2023-12-20T10:46:11;21.17;;;12.97;;
15385;SDS011;7791;47.246;9.648;2023-12-20T10:48:51;27.30;;;15.37;;
15385;SDS011;7791;47.246;9.648;2023-12-20T10:51:32;23.37;;;13.53;;
15385;SDS011;7791;47.246;9.648;2023-12-20T10:54:22;24.97;;;13.70;;
15385;SDS011;7791;47.246;9.648;2023-12-20T10:57:03;20.40;;;12.33;;
15385;SDS011;7791;47.246;9.648;2023-12-20T10:59:43;22.20;;;9.77;;
15385;SDS011;7791;47.246;9.648;2023-12-20T11:02:24;14.93;;;9.50;;
15385;SDS011;7791;47.246;9.648;2023-12-20T11:05:10;14.40;;;8.93;;
15385;SDS011;7791;47.246;9.648;2023-12-20T11:08:03;13.90;;;8.43;;
15385;SDS011;7791;47.246;9.648;2023-12-20T11:10:48;14.60;;;8.23;;
15385;SDS011;7791;47.246;9.648;2023-12-20T11:13:36;13.77;;;7.97;;
15385;SDS011;7791;47.246;9.648;2023-12-20T11:19:06;12.63;;;6.60;;
15385;SDS011;7791;47.246;9.648;2023-12-20T11:21:41;12.90;;;7.70;;
15385;SDS011;7791;47.246;9.648;2023-12-20T11:24:17;14.53;;;7.03;;
15385;SDS011;7791;47.246;9.648;2023-12-20T11:27:10;11.97;;;7.70;;
15385;SDS011;7791;47.246;9.648;2023-12-20T11:32:43;12.33;;;7.70;;
15385;SDS011;7791;47.246;9.648;2023-12-20T11:35:33;13.43;;;7.40;;
15385;SDS011;7791;47.246;9.648;2023-12-20T11:41:02;10.87;;;6.13;;
15385;SDS011;7791;47.246;9.648;2023-12-20T11:52:11;10.37;;;5.77;;
15385;SDS011;7791;47.246;9.648;2023-12-20T11:54:52;10.07;;;5.70;;
15385;SDS011;7791;47.246;9.648;2023-12-20T11:57:51;8.47;;;5.13;;
15385;SDS011;7791;47.246;9.648;2023-12-20T12:00:24;9.70;;;5.20;;
15385;SDS011;7791;47.246;9.648;2023-12-20T12:03:01;11.07;;;5.43;;
15385;SDS011;7791;47.246;9.648;2023-12-20T12:05:45;11.00;;;5.80;;
15385;SDS011;7791;47.246;9.648;2023-12-20T12:08:24;9.80;;;5.93;;
15385;SDS011;7791;47.246;9.648;2023-12-20T12:11:12;12.63;;;9.43;;
15385;SDS011;7791;47.246;9.648;2023-12-20T12:14:01;9.43;;;6.40;;
15385;SDS011;7791;47.246;9.648;2023-12-20T12:16:50;15.40;;;8.13;;
15385;SDS011;7791;47.246;9.648;2023-12-20T12:19:32;14.37;;;8.13;;
15385;SDS011;7791;47.246;9.648;2023-12-20T12:22:11;14.67;;;8.60;;
15385;SDS011;7791;47.246;9.648;2023-12-20T12:24:52;16.47;;;8.47;;
15385;SDS011;7791;47.246;9.648;2023-12-20T12:27:34;13.13;;;9.20;;
15385;SDS011;7791;47.246;9.648;2023-12-20T12:30:02;13.57;;;8.53;;
15385;SDS011;7791;47.246;9.648;2023-12-20T12:32:45;15.50;;;9.87;;
15385;SDS011;7791;47.246;9.648;2023-12-20T12:35:29;16.57;;;10.40;;
15385;SDS011;7791;47.246;9.648;2023-12-20T12:38:01;19.90;;;11.13;;
15385;SDS011;7791;47.246;9.648;2023-12-20T12:43:38;16.47;;;10.67;;
15385;SDS011;7791;47.246;9.648;2023-12-20T12:46:11;16.70;;;11.80;;
15385;SDS011;7791;47.246;9.648;2023-12-20T12:48:47;18.33;;;11.47;;
15385;SDS011;7791;47.246;9.648;2023-12-20T12:51:36;19.97;;;11.10;;
15385;SDS011;7791;47.246;9.648;2023-12-20T12:54:08;17.67;;;11.10;;
15385;SDS011;7791;47.246;9.648;2023-12-20T12:56:43;17.40;;;11.67;;
15385;SDS011;7791;47.246;9.648;2023-12-20T12:59:22;16.77;;;10.80;;
15385;SDS011;7791;47.246;9.648;2023-12-20T13:02:07;16.13;;;10.20;;
15385;SDS011;7791;47.246;9.648;2023-12-20T13:04:40;15.70;;;10.47;;
15385;SDS011;7791;47.246;9.648;2023-12-20T13:07:21;18.40;;;11.20;;
15385;SDS011;7791;47.246;9.648;2023-12-20T13:09:58;18.60;;;10.27;;
15385;SDS011;7791;47.246;9.648;2023-12-20T13:15:32;17.43;;;10.07;;
15385;SDS011;7791;47.246;9.648;2023-12-20T13:18:09;17.33;;;9.57;;
15385;SDS011;7791;47.246;9.648;2023-12-20T13:20:51;15.87;;;9.67;;
15385;SDS011;7791;47.246;9.648;2023-12-20T13:23:36;16.97;;;9.30;;
15385;SDS011;7791;47.246;9.648;2023-12-20T13:26:08;24.97;;;17.47;;
15385;SDS011;7791;47.246;9.648;2023-12-20T13:28:48;15.17;;;11.03;;
15385;SDS011;7791;47.246;9.648;2023-12-20T13:31:24;15.23;;;10.93;;
15385;SDS011;7791;47.246;9.648;2023-12-20T13:33:51;18.77;;;11.97;;
15385;SDS011;7791;47.246;9.648;2023-12-20T13:36:34;14.63;;;10.17;;
15385;SDS011;7791;47.246;9.648;2023-12-20T13:39:15;13.90;;;10.20;;
15385;SDS011;7791;47.246;9.648;2023-12-20T13:44:57;14.40;;;8.87;;
15385;SDS011;7791;47.246;9.648;2023-12-20T13:47:36;10.03;;;6.07;;
15385;SDS011;7791;47.246;9.648;2023-12-20T13:50:24;12.27;;;6.87;;
15385;SDS011;7791;47.246;9.648;2023-12-20T13:52:59;9.23;;;5.83;;
15385;SDS011;7791;47.246;9.648;2023-12-20T13:55:59;10.40;;;6.30;;
15385;SDS011;7791;47.246;9.648;2023-12-20T13:58:37;9.00;;;4.83;;
15385;SDS011;7791;47.246;9.648;2023-12-20T14:01:20;10.07;;;4.70;;
15385;SDS011;7791;47.246;9.648;2023-12-20T14:03:52;5.23;;;2.47;;
15385;SDS011;7791;47.246;9.648;2023-12-20T14:06:34;5.73;;;2.47;;
15385;SDS011;7791;47.246;9.648;2023-12-20T14:09:13;3.33;;;1.90;;
15385;SDS011;7791;47.246;9.648;2023-12-20T14:11:55;3.80;;;1.80;;
15385;SDS011;7791;47.246;9.648;2023-12-20T14:14:33;2.27;;;1.37;;
15385;SDS011;7791;47.246;9.648;2023-12-20T14:17:12;3.27;;;1.90;;
15385;SDS011;7791;47.246;9.648;2023-12-20T14:19:48;1.30;;;1.00;;
15385;SDS011;7791;47.246;9.648;2023-12-20T14:25:25;4.63;;;3.20;;
15385;SDS011;7791;47.246;9.648;2023-12-20T14:31:03;4.50;;;2.63;;
15385;SDS011;7791;47.246;9.648;2023-12-20T14:33:42;3.73;;;2.47;;
15385;SDS011;7791;47.246;9.648;2023-12-20T14:36:17;3.03;;;2.00;;
15385;SDS011;7791;47.246;9.648;2023-12-20T14:39:08;1.30;;;1.20;;
15385;SDS011;7791;47.246;9.648;2023-12-20T14:41:51;2.60;;;1.30;;
15385;SDS011;7791;47.246;9.648;2023-12-20T14:44:26;13.57;;;5.93;;
15385;SDS011;7791;47.246;9.648;2023-12-20T14:47:02;2.07;;;1.50;;
15385;SDS011;7791;47.246;9.648;2023-12-20T14:49:39;2.00;;;1.57;;
15385;SDS011;7791;47.246;9.648;2023-12-20T14:52:32;3.10;;;1.60;;
15385;SDS011;7791;47.246;9.648;2023-12-20T14:58:01;2.50;;;1.23;;
15385;SDS011;7791;47.246;9.648;2023-12-20T15:00:28;8.17;;;2.80;;
15385;SDS011;7791;47.246;9.648;2023-12-20T15:03:10;1.80;;;1.07;;
15385;SDS011;7791;47.246;9.648;2023-12-20T15:05:50;2.53;;;1.20;;
15385;SDS011;7791;47.246;9.648;2023-12-20T15:11:00;1.27;;;0.83;;
15385;SDS011;7791;47.246;9.648;2023-12-20T15:13:44;1.30;;;0.90;;
15385;SDS011;7791;47.246;9.648;2023-12-20T15:16:45;3.57;;;1.30;;
15385;SDS011;7791;47.246;9.648;2023-12-20T15:19:25;6.47;;;1.63;;
15385;SDS011;7791;47.246;9.648;2023-12-20T15:22:00;1.30;;;0.80;;
15385;SDS011;7791;47.246;9.648;2023-12-20T15:24:42;1.70;;;1.30;;
15385;SDS011;7791;47.246;9.648;2023-12-20T15:27:14;3.73;;;2.27;;
15385;SDS011;7791;47.246;9.648;2023-12-20T15:30:04;1.47;;;0.97;;
15385;SDS011;7791;47.246;9.648;2023-12-20T15:32:49;3.37;;;1.20;;
15385;SDS011;7791;47.246;9.648;2023-12-20T15:39:03;1.00;;;0.90;;
15385;SDS011;7791;47.246;9.648;2023-12-20T15:41:36;2.63;;;0.90;;
15385;SDS011;7791;47.246;9.648;2023-12-20T15:44:13;2.40;;;1.00;;
15385;SDS011;7791;47.246;9.648;2023-12-20T15:47:12;2.70;;;1.03;;
15385;SDS011;7791;47.246;9.648;2023-12-20T15:49:55;3.20;;;1.10;;
15385;SDS011;7791;47.246;9.648;2023-12-20T15:52:33;2.17;;;1.00;;
15385;SDS011;7791;47.246;9.648;2023-12-20T15:55:23;1.60;;;1.00;;
15385;SDS011;7791;47.246;9.648;2023-12-20T15:57:59;1.70;;;1.20;;
15385;SDS011;7791;47.246;9.648;2023-12-20T16:03:13;5.57;;;3.20;;
15385;SDS011;7791;47.246;9.648;2023-12-20T16:08:32;1.67;;;1.10;;
15385;SDS011;7791;47.246;9.648;2023-12-20T16:11:13;1.50;;;1.00;;
15385;SDS011;7791;47.246;9.648;2023-12-20T16:14:07;5.73;;;1.80;;
15385;SDS011;7791;47.246;9.648;2023-12-20T16:16:48;2.50;;;1.10;;
15385;SDS011;7791;47.246;9.648;2023-12-20T16:19:29;2.73;;;1.17;;
15385;SDS011;7791;47.246;9.648;2023-12-20T16:22:13;2.10;;;0.90;;
15385;SDS011;7791;47.246;9.648;2023-12-20T16:27:41;1.53;;;0.90;;
15385;SDS011;7791;47.246;9.648;2023-12-20T16:33:21;6.63;;;2.47;;
15385;SDS011;7791;47.246;9.648;2023-12-20T16:36:04;3.60;;;1.63;;
15385;SDS011;7791;47.246;9.648;2023-12-20T16:38:41;36.17;;;12.23;;
15385;SDS011;7791;47.246;9.648;2023-12-20T16:41:22;32.47;;;11.07;;
15385;SDS011;7791;47.246;9.648;2023-12-20T16:44:19;10.23;;;3.63;;
15385;SDS011;7791;47.246;9.648;2023-12-20T16:47:05;4.37;;;2.30;;
15385;SDS011;7791;47.246;9.648;2023-12-20T16:49:46;7.43;;;3.87;;
15385;SDS011;7791;47.246;9.648;2023-12-20T16:52:28;1.60;;;1.13;;
15385;SDS011;7791;47.246;9.648;2023-12-20T16:55:01;4.00;;;1.70;;
15385;SDS011;7791;47.246;9.648;2023-12-20T16:57:42;1.80;;;0.90;;
15385;SDS011;7791;47.246;9.648;2023-12-20T17:00:20;1.17;;;1.00;;
15385;SDS011;7791;47.246;9.648;2023-12-20T17:02:59;1.37;;;0.90;;
15385;SDS011;7791;47.246;9.648;2023-12-20T17:08:22;1.70;;;1.20;;
15385;SDS011;7791;47.246;9.648;2023-12-20T17:11:01;1.70;;;1.13;;
15385;SDS011;7791;47.246;9.648;2023-12-20T17:16:44;2.97;;;1.20;;
15385;SDS011;7791;47.246;9.648;2023-12-20T17:19:20;1.87;;;1.10;;
15385;SDS011;7791;47.246;9.648;2023-12-20T17:21:58;5.03;;;1.60;;
15385;SDS011;7791;47.246;9.648;2023-12-20T17:24:38;3.10;;;1.10;;
15385;SDS011;7791;47.246;9.648;2023-12-20T17:30:14;5.13;;;2.57;;
15385;SDS011;7791;47.246;9.648;2023-12-20T17:32:50;2.97;;;1.77;;
15385;SDS011;7791;47.246;9.648;2023-12-20T17:35:28;4.93;;;1.93;;
15385;SDS011;7791;47.246;9.648;2023-12-20T17:38:15;6.30;;;2.40;;
15385;SDS011;7791;47.246;9.648;2023-12-20T17:40:56;5.57;;;2.60;;
15385;SDS011;7791;47.246;9.648;2023-12-20T17:43:41;4.77;;;1.57;;
15385;SDS011;7791;47.246;9.648;2023-12-20T17:46:20;6.07;;;3.40;;
15385;SDS011;7791;47.246;9.648;2023-12-20T17:49:09;2.43;;;1.40;;
15385;SDS011;7791;47.246;9.648;2023-12-20T17:51:45;2.53;;;1.50;;
15385;SDS011;7791;47.246;9.648;2023-12-20T17:54:18;2.90;;;1.40;;
15385;SDS011;7791;47.246;9.648;2023-12-20T17:57:17;3.17;;;1.37;;
15385;SDS011;7791;47.246;9.648;2023-12-20T17:59:47;2.57;;;1.20;;
15385;SDS011;7791;47.246;9.648;2023-12-20T18:02:48;2.97;;;1.20;;
15385;SDS011;7791;47.246;9.648;2023-12-20T18:08:18;4.70;;;1.90;;
15385;SDS011;7791;47.246;9.648;2023-12-20T18:13:50;8.27;;;4.93;;
15385;SDS011;7791;47.246;9.648;2023-12-20T18:16:21;6.50;;;2.57;;
15385;SDS011;7791;47.246;9.648;2023-12-20T18:19:12;4.43;;;2.73;;
15385;SDS011;7791;47.246;9.648;2023-12-20T18:22:04;3.00;;;1.80;;
15385;SDS011;7791;47.246;9.648;2023-12-20T18:24:35;6.57;;;3.13;;
15385;SDS011;7791;47.246;9.648;2023-12-20T18:27:14;4.53;;;2.80;;
15385;SDS011;7791;47.246;9.648;2023-12-20T18:30:02;7.23;;;4.67;;
15385;SDS011;7791;47.246;9.648;2023-12-20T18:32:30;14.93;;;7.17;;
15385;SDS011;7791;47.246;9.648;2023-12-20T18:35:21;16.17;;;6.97;;
15385;SDS011;7791;47.246;9.648;2023-12-20T18:38:21;9.47;;;4.10;;
15385;SDS011;7791;47.246;9.648;2023-12-20T18:40:59;11.90;;;5.20;;
15385;SDS011;7791;47.246;9.648;2023-12-20T18:43:36;8.20;;;4.03;;
15385;SDS011;7791;47.246;9.648;2023-12-20T18:46:24;6.67;;;3.67;;
15385;SDS011;7791;47.246;9.648;2023-12-20T18:49:01;5.07;;;3.20;;
15385;SDS011;7791;47.246;9.648;2023-12-20T18:51:40;5.53;;;2.60;;
15385;SDS011;7791;47.246;9.648;2023-12-20T18:54:28;6.37;;;2.60;;
15385;SDS011;7791;47.246;9.648;2023-12-20T18:59:55;13.67;;;6.20;;